createdAt,value
2023-06-11T00:00:43.113Z,8.00
2023-06-11T00:03:10.441Z,7.63
2023-06-11T00:05:37.672Z,7.75
2023-06-11T00:08:05.684Z,7.65
2023-06-11T00:10:32.800Z,7.72
2023-06-11T00:13:00.025Z,7.22
2023-06-11T00:15:27.213Z,8.03
2023-06-11T00:17:54.790Z,8.40
2023-06-11T00:20:22.105Z,7.85
2023-06-11T00:22:49.695Z,7.25
2023-06-11T00:25:16.992Z,7.72
2023-06-11T00:27:44.146Z,7.47
2023-06-11T00:30:12.775Z,7.80
2023-06-11T00:32:39.970Z,7.30
2023-06-11T00:35:10.287Z,7.45
2023-06-11T00:37:38.232Z,7.95
2023-06-11T00:40:09.221Z,7.83
2023-06-11T00:42:37.603Z,7.05
2023-06-11T00:45:07.271Z,7.75
2023-06-11T00:47:37.816Z,8.30
2023-06-11T00:50:06.891Z,7.68
2023-06-11T00:52:33.985Z,7.60
2023-06-11T00:55:01.274Z,7.38
2023-06-11T00:57:28.401Z,7.22
2023-06-11T00:59:57.070Z,7.20
2023-06-11T01:02:34.018Z,7.32
2023-06-11T01:05:04.839Z,8.00
2023-06-11T01:07:37.555Z,7.57
2023-06-11T01:10:06.520Z,7.43
2023-06-11T01:12:36.624Z,7.07
2023-06-11T01:15:04.212Z,7.57
2023-06-11T01:17:41.965Z,7.53
2023-06-11T01:20:35.973Z,7.82
2023-06-11T01:23:12.620Z,7.88
2023-06-11T01:26:27.165Z,8.18
2023-06-11T01:28:57.527Z,7.00
2023-06-11T01:31:27.271Z,7.03
2023-06-11T01:33:54.746Z,7.70
2023-06-11T01:36:25.645Z,7.57
2023-06-11T01:38:55.884Z,7.10
2023-06-11T01:41:37.429Z,7.78
2023-06-11T01:44:05.501Z,7.93
2023-06-11T01:46:33.379Z,8.25
2023-06-11T01:49:00.696Z,7.78
2023-06-11T01:51:27.848Z,7.97
2023-06-11T01:53:56.208Z,7.60
2023-06-11T01:56:23.440Z,8.07
2023-06-11T01:58:50.641Z,7.50
2023-06-11T02:01:17.856Z,7.82
2023-06-11T02:03:45.338Z,7.63
2023-06-11T02:06:12.755Z,7.70
2023-06-11T02:08:39.930Z,7.23
2023-06-11T02:11:07.083Z,7.47
2023-06-11T02:13:34.444Z,7.75
2023-06-11T02:16:01.574Z,7.47
2023-06-11T02:18:29.110Z,7.53
2023-06-11T02:20:56.320Z,7.53
2023-06-11T02:23:23.528Z,8.13
2023-06-11T02:25:50.864Z,7.10
2023-06-11T02:28:18.339Z,7.82
2023-06-11T02:30:45.547Z,7.82
2023-06-11T02:33:12.860Z,8.30
2023-06-11T02:35:40.085Z,7.85
2023-06-11T02:38:07.268Z,7.65
2023-06-11T02:40:34.747Z,7.72
2023-06-11T02:43:01.877Z,8.32
2023-06-11T02:45:29.117Z,7.47
2023-06-11T02:47:56.672Z,7.65
2023-06-11T02:50:23.874Z,6.93
2023-06-11T02:52:51.084Z,7.47
2023-06-11T02:55:18.594Z,7.88
2023-06-11T02:57:45.744Z,7.40
2023-06-11T03:00:13.396Z,7.10
2023-06-11T03:02:41.049Z,7.38
2023-06-11T03:05:09.223Z,7.65
2023-06-11T03:07:37.075Z,7.78
2023-06-11T03:10:05.660Z,7.40
2023-06-11T03:12:32.776Z,7.65
2023-06-11T03:15:00.089Z,8.10
2023-06-11T03:17:27.267Z,7.65
2023-06-11T03:19:54.375Z,7.80
2023-06-11T03:22:21.799Z,7.43
2023-06-11T03:24:48.951Z,7.43
2023-06-11T03:27:30.663Z,7.63
2023-06-11T03:29:57.926Z,7.50
2023-06-11T03:32:25.549Z,7.53
2023-06-11T03:34:53.277Z,7.67
2023-06-11T03:37:22.837Z,7.38
2023-06-11T03:39:53.897Z,8.15
2023-06-11T03:42:21.071Z,7.97
2023-06-11T03:44:50.366Z,7.00
2023-06-11T03:47:18.429Z,7.13
2023-06-11T03:49:46.640Z,7.03
2023-06-11T03:52:14.500Z,6.97
2023-06-11T03:54:41.622Z,7.63
2023-06-11T03:57:08.850Z,7.10
2023-06-11T03:59:36.002Z,7.80
2023-06-11T04:02:03.896Z,7.50
2023-06-11T04:04:32.843Z,7.72
2023-06-11T04:07:00.612Z,7.38
2023-06-11T04:09:27.793Z,7.53
2023-06-11T04:11:55.020Z,7.70
2023-06-11T04:14:22.542Z,7.00
2023-06-11T04:16:50.165Z,6.97
2023-06-11T04:19:21.424Z,7.25
2023-06-11T04:21:49.041Z,8.20
2023-06-11T04:24:16.618Z,7.57
2023-06-11T04:26:45.255Z,7.78
2023-06-11T04:29:16.899Z,7.43
2023-06-11T04:31:48.000Z,7.47
2023-06-11T04:34:22.209Z,7.75
2023-06-11T04:36:51.146Z,7.90
2023-06-11T04:39:18.332Z,8.15
2023-06-11T04:41:47.998Z,6.88
2023-06-11T04:44:15.502Z,7.93
2023-06-11T04:46:44.735Z,7.55
2023-06-11T04:49:11.990Z,8.00
2023-06-11T04:51:41.915Z,7.65
2023-06-11T04:54:10.421Z,7.55
2023-06-11T04:56:43.130Z,7.72
2023-06-11T04:59:11.052Z,7.72
2023-06-11T05:01:47.458Z,8.00
2023-06-11T05:04:16.378Z,7.50
2023-06-11T05:06:46.142Z,7.90
2023-06-11T05:09:17.143Z,7.65
2023-06-11T05:11:46.712Z,7.68
2023-06-11T05:14:16.148Z,7.23
2023-06-11T05:16:44.010Z,6.97
2023-06-11T05:19:12.896Z,8.05
2023-06-11T05:21:40.524Z,7.38
2023-06-11T05:24:09.019Z,7.53
2023-06-11T05:26:40.769Z,7.53
2023-06-11T05:29:11.501Z,7.47
2023-06-11T05:31:40.997Z,7.35
2023-06-11T05:34:08.581Z,7.18
2023-06-11T05:36:36.579Z,7.10
2023-06-11T05:39:03.772Z,7.67
2023-06-11T05:41:31.100Z,7.18
2023-06-11T05:43:58.638Z,6.57
2023-06-11T05:46:26.764Z,7.30
2023-06-11T05:48:53.953Z,6.93
2023-06-11T05:51:21.802Z,7.07
2023-06-11T05:53:49.101Z,7.03
2023-06-11T05:56:16.596Z,6.80
2023-06-11T05:58:44.458Z,6.75
2023-06-11T06:01:13.528Z,7.00
2023-06-11T06:03:42.280Z,7.07
2023-06-11T06:06:10.309Z,6.68
2023-06-11T06:08:37.772Z,6.18
2023-06-11T06:11:04.917Z,7.40
2023-06-11T06:13:32.071Z,7.15
2023-06-11T06:16:03.480Z,7.03
2023-06-11T06:18:30.971Z,6.72
2023-06-11T06:20:59.450Z,7.45
2023-06-11T06:23:26.771Z,6.97
2023-06-11T06:26:01.248Z,7.40
2023-06-11T06:28:28.418Z,6.90
2023-06-11T06:30:55.984Z,6.90
2023-06-11T06:33:25.154Z,6.78
2023-06-11T06:35:52.435Z,7.22
2023-06-11T06:38:20.575Z,6.72
2023-06-11T06:40:49.331Z,7.00
2023-06-11T06:43:16.504Z,7.30
2023-06-11T06:45:44.290Z,6.20
2023-06-11T06:48:24.273Z,6.85
2023-06-11T06:50:51.537Z,6.53
2023-06-11T06:53:19.005Z,6.90
2023-06-11T06:55:47.698Z,6.57
2023-06-11T06:58:16.261Z,6.97
2023-06-11T07:00:46.182Z,6.45
2023-06-11T07:03:17.676Z,7.25
2023-06-11T07:05:45.619Z,6.17
2023-06-11T07:08:13.445Z,6.90
2023-06-11T07:10:52.237Z,6.65
2023-06-11T07:13:27.261Z,6.45
2023-06-11T07:15:56.767Z,6.78
2023-06-11T07:18:24.068Z,6.73
2023-06-11T07:20:51.218Z,6.93
2023-06-11T07:23:24.445Z,6.65
2023-06-11T07:25:52.154Z,7.45
2023-06-11T07:28:20.401Z,6.95
2023-06-11T07:30:51.388Z,6.27
2023-06-11T07:33:19.838Z,7.05
2023-06-11T07:35:54.117Z,7.40
2023-06-11T07:38:24.120Z,7.00
2023-06-11T07:40:51.421Z,7.00
2023-06-11T07:43:18.595Z,7.43
2023-06-11T07:45:45.832Z,7.45
2023-06-11T07:48:15.652Z,6.95
2023-06-11T07:50:45.521Z,6.55
2023-06-11T07:53:20.256Z,6.85
2023-06-11T07:55:58.295Z,7.10
2023-06-11T07:58:26.257Z,7.18
2023-06-11T08:00:55.957Z,6.25
2023-06-11T08:03:23.396Z,7.47
2023-06-11T08:05:51.936Z,7.28
2023-06-11T08:08:19.432Z,6.67
2023-06-11T08:10:47.032Z,7.32
2023-06-11T08:13:15.334Z,6.75
2023-06-11T08:15:42.594Z,6.75
2023-06-11T08:18:09.795Z,7.07
2023-06-11T08:20:36.973Z,7.50
2023-06-11T08:23:04.131Z,6.90
2023-06-11T08:25:35.020Z,7.35
2023-06-11T08:28:02.172Z,7.63
2023-06-11T08:30:29.507Z,6.38
2023-06-11T08:32:57.816Z,7.50
2023-06-11T08:35:25.140Z,7.05
2023-06-11T08:37:52.620Z,6.70
2023-06-11T08:40:22.197Z,6.78
2023-06-11T08:42:50.694Z,6.22
2023-06-11T08:45:18.238Z,6.03
2023-06-11T08:47:51.815Z,6.50
2023-06-11T08:50:22.682Z,6.82
2023-06-11T08:52:52.976Z,6.60
2023-06-11T08:55:20.281Z,6.65
2023-06-11T08:57:48.068Z,6.73
2023-06-11T09:00:15.811Z,6.63
2023-06-11T09:02:43.473Z,6.15
2023-06-11T09:05:12.708Z,6.65
2023-06-11T09:07:51.934Z,6.68
2023-06-11T09:10:21.101Z,6.43
2023-06-11T09:12:48.720Z,6.55
2023-06-11T09:15:18.100Z,6.13
2023-06-11T09:17:47.994Z,6.43
2023-06-11T09:20:16.944Z,6.10
2023-06-11T09:22:45.578Z,6.60
2023-06-11T09:25:18.600Z,5.68
2023-06-11T09:27:48.114Z,6.43
2023-06-11T09:30:18.342Z,6.15
2023-06-11T09:32:49.545Z,5.75
2023-06-11T09:35:21.369Z,6.03
2023-06-11T09:37:52.180Z,5.95
2023-06-11T09:40:21.799Z,5.70
2023-06-11T09:42:50.014Z,6.22
2023-06-11T09:45:21.041Z,6.72
2023-06-11T09:47:49.451Z,6.37
2023-06-11T09:50:19.316Z,6.85
2023-06-11T09:52:47.148Z,6.88
2023-06-11T09:55:15.135Z,6.32
2023-06-11T09:57:44.921Z,6.72
2023-06-11T10:00:15.165Z,7.17
2023-06-11T10:02:43.994Z,6.43
2023-06-11T10:05:12.671Z,6.10
2023-06-11T10:07:57.145Z,6.68
2023-06-11T10:10:25.896Z,6.00
2023-06-11T10:12:54.535Z,5.87
2023-06-11T10:15:26.062Z,5.60
2023-06-11T10:17:58.326Z,6.30
2023-06-11T10:20:32.910Z,6.20
2023-06-11T10:23:08.615Z,5.88
2023-06-11T10:25:41.691Z,5.63
2023-06-11T10:28:11.035Z,5.95
2023-06-11T10:30:38.982Z,5.20
2023-06-11T10:33:07.424Z,4.70
2023-06-11T10:35:38.221Z,5.20
2023-06-11T10:38:14.575Z,5.17
2023-06-11T10:40:44.265Z,5.15
2023-06-11T10:43:21.979Z,4.90
2023-06-11T10:46:05.297Z,5.13
2023-06-11T10:48:33.372Z,4.68
2023-06-11T10:51:06.597Z,5.33
2023-06-11T10:53:42.397Z,4.82
2023-06-11T10:56:15.182Z,4.80
2023-06-11T10:58:43.664Z,4.85
2023-06-11T11:01:13.522Z,4.68
2023-06-11T11:03:44.744Z,4.97
2023-06-11T11:06:14.585Z,4.50
2023-06-11T11:08:42.016Z,5.05
2023-06-11T11:11:23.371Z,4.90
2023-06-11T11:13:54.033Z,4.60
2023-06-11T11:16:23.857Z,4.73
2023-06-11T11:18:53.241Z,5.15
2023-06-11T11:21:31.696Z,4.40
2023-06-11T11:24:00.304Z,4.93
2023-06-11T11:26:29.760Z,4.40
2023-06-11T11:28:57.049Z,4.27
2023-06-11T11:31:24.608Z,4.70
2023-06-11T11:33:52.233Z,4.95
2023-06-11T11:36:19.692Z,5.05
2023-06-11T11:38:52.078Z,4.93
2023-06-11T11:41:23.894Z,4.83
2023-06-11T11:43:54.536Z,4.90
2023-06-11T11:46:25.143Z,4.80
2023-06-11T11:48:58.933Z,5.32
2023-06-11T11:51:27.482Z,5.25
2023-06-11T11:53:54.736Z,4.90
2023-06-11T11:56:24.578Z,4.95
2023-06-11T11:58:54.605Z,5.13
2023-06-11T12:01:23.723Z,4.95
2023-06-11T12:04:02.212Z,4.35
2023-06-11T12:06:31.533Z,4.30
2023-06-11T12:08:59.084Z,4.75
2023-06-11T12:11:26.248Z,4.30
2023-06-11T12:13:53.383Z,4.53
2023-06-11T12:16:23.949Z,4.60
2023-06-11T12:18:51.120Z,4.77
2023-06-11T12:21:18.747Z,4.40
2023-06-11T12:23:45.836Z,4.55
2023-06-11T12:26:12.976Z,4.82
2023-06-11T12:28:44.290Z,4.80
2023-06-11T12:31:16.311Z,5.00
2023-06-11T12:33:44.699Z,4.88
2023-06-11T12:36:14.415Z,5.15
2023-06-11T12:38:41.568Z,5.30
2023-06-11T12:41:09.078Z,5.95
2023-06-11T12:43:39.319Z,4.67
2023-06-11T12:46:07.930Z,4.95
2023-06-11T12:48:35.451Z,5.20
2023-06-11T12:51:02.811Z,4.85
2023-06-11T12:53:31.360Z,5.10
2023-06-11T12:55:58.536Z,4.80
2023-06-11T12:58:25.662Z,5.18
2023-06-11T13:00:52.830Z,5.25
2023-06-11T13:03:20.289Z,5.07
2023-06-11T13:05:47.516Z,4.75
2023-06-11T13:08:14.694Z,4.77
2023-06-11T13:10:41.856Z,5.75
2023-06-11T13:13:09.008Z,4.97
2023-06-11T13:15:36.173Z,5.25
2023-06-11T13:18:04.560Z,5.13
2023-06-11T13:20:32.386Z,4.80
2023-06-11T13:22:59.538Z,5.38
2023-06-11T13:25:26.797Z,5.03
2023-06-11T13:27:59.863Z,5.13
2023-06-11T13:30:29.619Z,4.78
2023-06-11T13:33:00.627Z,4.97
2023-06-11T13:35:30.540Z,4.88
2023-06-11T13:38:01.366Z,5.20
2023-06-11T13:40:28.846Z,4.63
2023-06-11T13:43:01.342Z,4.75
2023-06-11T13:45:29.962Z,4.57
2023-06-11T13:48:01.595Z,4.93
2023-06-11T13:50:32.182Z,4.20
2023-06-11T13:53:01.095Z,4.65
2023-06-11T13:55:31.832Z,4.50
2023-06-11T13:58:04.855Z,4.37
2023-06-11T14:00:35.264Z,4.07
2023-06-11T14:03:10.409Z,4.32
2023-06-11T14:05:38.056Z,4.47
2023-06-11T14:08:11.193Z,4.30
2023-06-11T14:10:40.764Z,4.07
2023-06-11T14:13:10.126Z,4.15
2023-06-11T14:15:41.132Z,4.15
2023-06-11T14:18:12.070Z,4.40
2023-06-11T14:20:39.386Z,4.65
2023-06-11T14:23:06.914Z,4.60
2023-06-11T14:25:44.473Z,4.90
2023-06-11T14:28:26.596Z,4.70
2023-06-11T14:30:54.061Z,4.78
2023-06-11T14:33:26.354Z,4.72
2023-06-11T14:36:16.311Z,4.60
2023-06-11T14:38:52.423Z,4.50
2023-06-11T14:41:26.966Z,4.22
2023-06-11T14:44:09.708Z,5.30
2023-06-11T14:47:05.919Z,4.60
2023-06-11T14:55:12.215Z,4.65
2023-06-11T14:55:40.919Z,4.10
2023-06-11T14:58:08.221Z,4.78
2023-06-11T15:00:44.721Z,4.78
2023-06-11T15:03:13.389Z,4.77
2023-06-11T15:05:41.767Z,4.80
2023-06-11T15:08:08.917Z,4.32
2023-06-11T15:10:38.636Z,4.68
2023-06-11T15:13:07.422Z,4.68
2023-06-11T15:15:34.521Z,4.77
2023-06-11T15:18:01.901Z,4.72
2023-06-11T15:20:31.698Z,4.95
2023-06-11T15:22:59.091Z,4.70
2023-06-11T15:25:26.590Z,5.30
2023-06-11T15:27:57.778Z,5.00
2023-06-11T15:30:26.641Z,5.20
2023-06-11T15:32:55.440Z,5.50
2023-06-11T15:35:26.756Z,5.03
2023-06-11T15:37:54.055Z,5.47
2023-06-11T15:40:24.473Z,4.60
2023-06-11T15:42:51.808Z,4.70
2023-06-11T15:45:19.085Z,4.60
2023-06-11T15:47:46.344Z,5.07
2023-06-11T15:50:17.873Z,4.80
2023-06-11T15:52:49.785Z,4.60
2023-06-11T15:55:28.358Z,4.32
2023-06-11T15:57:58.142Z,4.38
2023-06-11T16:00:25.774Z,4.65
2023-06-11T16:02:55.586Z,4.47
2023-06-11T16:05:22.882Z,4.60
2023-06-11T16:07:52.623Z,4.70
2023-06-11T16:10:20.136Z,4.60
2023-06-11T16:12:53.130Z,4.63
2023-06-11T16:15:22.815Z,4.60
2023-06-11T16:17:50.055Z,4.33
2023-06-11T16:20:17.444Z,4.70
2023-06-11T16:22:44.785Z,4.50
2023-06-11T16:25:12.365Z,4.47
2023-06-11T16:27:40.172Z,4.80
2023-06-11T16:30:08.839Z,4.53
2023-06-11T16:32:36.366Z,4.20
2023-06-11T16:35:04.015Z,4.63
2023-06-11T16:37:31.191Z,4.45
2023-06-11T16:39:58.353Z,4.40
2023-06-11T16:42:25.491Z,4.10
2023-06-11T16:44:52.679Z,4.47
2023-06-11T16:47:19.813Z,4.05
2023-06-11T16:50:01.917Z,4.05
2023-06-11T16:52:32.553Z,4.25
2023-06-11T16:55:02.036Z,5.10
2023-06-11T16:57:29.815Z,5.35
2023-06-11T16:59:59.454Z,4.80
2023-06-11T17:02:27.394Z,4.90
2023-06-11T17:04:57.107Z,4.82
2023-06-11T17:07:24.337Z,4.37
2023-06-11T17:09:51.500Z,4.85
2023-06-11T17:12:18.730Z,5.05
2023-06-11T17:15:15.804Z,5.20
2023-06-11T17:17:44.222Z,4.70
2023-06-11T17:20:15.483Z,5.20
2023-06-11T17:22:47.641Z,5.28
2023-06-11T17:25:15.599Z,5.22
2023-06-11T17:27:42.892Z,4.88
2023-06-11T17:30:10.929Z,4.50
2023-06-11T17:32:38.364Z,5.32
2023-06-11T17:35:06.117Z,5.13
2023-06-11T17:37:33.304Z,5.07
2023-06-11T17:40:00.545Z,4.82
2023-06-11T17:42:27.685Z,5.03
2023-06-11T17:44:54.796Z,4.60
2023-06-11T17:47:21.995Z,5.20
2023-06-11T17:49:50.105Z,4.85
2023-06-11T17:52:17.861Z,5.10
2023-06-11T17:54:45.166Z,5.53
2023-06-11T17:57:12.316Z,4.97
2023-06-11T17:59:39.497Z,5.10
2023-06-11T18:02:06.793Z,4.88
2023-06-11T18:04:33.952Z,5.25
2023-06-11T18:07:01.316Z,5.43
2023-06-11T18:09:28.435Z,5.20
2023-06-11T18:11:55.603Z,6.35
2023-06-11T18:14:22.909Z,5.95
2023-06-11T18:16:50.215Z,5.60
2023-06-11T18:19:17.458Z,5.97
2023-06-11T18:21:44.733Z,5.72
2023-06-11T18:24:13.292Z,5.40
2023-06-11T18:26:40.519Z,5.43
2023-06-11T18:29:07.668Z,5.55
2023-06-11T18:31:34.901Z,5.40
2023-06-11T18:34:02.068Z,5.28
2023-06-11T18:36:29.169Z,5.20
2023-06-11T18:38:57.696Z,5.32
2023-06-11T18:41:25.397Z,5.07
2023-06-11T18:43:53.428Z,5.53
2023-06-11T18:46:20.969Z,5.70
2023-06-11T18:48:48.304Z,5.63
2023-06-11T18:51:15.527Z,5.00
2023-06-11T18:53:43.473Z,5.50
2023-06-11T18:56:10.638Z,5.50
2023-06-11T18:58:37.712Z,5.50
2023-06-11T19:01:04.994Z,5.30
2023-06-11T19:03:34.036Z,4.78
2023-06-11T19:06:02.709Z,5.70
2023-06-11T19:08:29.934Z,5.37
2023-06-11T19:10:57.045Z,5.88
2023-06-11T19:13:24.159Z,5.80
2023-06-11T19:15:51.344Z,5.45
2023-06-11T19:18:18.740Z,6.82
2023-06-11T19:20:45.961Z,6.53
2023-06-11T19:23:15.484Z,6.15
2023-06-11T19:25:42.714Z,6.28
2023-06-11T19:28:09.867Z,6.28
2023-06-11T19:30:37.133Z,6.68
2023-06-11T19:33:04.444Z,5.87
2023-06-11T19:35:31.615Z,6.25
2023-06-11T19:37:58.872Z,6.20
2023-06-11T19:40:26.067Z,6.55
2023-06-11T19:42:53.228Z,6.78
2023-06-11T19:45:22.142Z,6.50
2023-06-11T19:47:49.591Z,6.53
2023-06-11T19:50:17.021Z,6.72
2023-06-11T19:52:44.102Z,5.95
2023-06-11T19:55:11.876Z,6.07
2023-06-11T19:57:39.185Z,5.57
2023-06-11T20:00:07.279Z,5.60
2023-06-11T20:02:39.649Z,5.82
2023-06-11T20:05:07.938Z,5.80
2023-06-11T20:07:36.241Z,6.10
2023-06-11T20:10:05.751Z,6.73
2023-06-11T20:12:33.197Z,5.97
2023-06-11T20:15:00.626Z,4.60
2023-06-11T20:17:27.951Z,5.40
2023-06-11T20:19:55.430Z,5.07
2023-06-11T20:22:23.029Z,5.70
2023-06-11T20:24:50.148Z,5.32
2023-06-11T20:27:17.769Z,4.30
2023-06-11T20:29:44.872Z,4.75
2023-06-11T20:32:12.955Z,4.88
2023-06-11T20:34:40.916Z,4.80
2023-06-11T20:37:08.195Z,5.00
2023-06-11T20:39:35.636Z,4.53
2023-06-11T20:42:02.854Z,5.03
2023-06-11T20:44:29.968Z,5.55
2023-06-11T20:46:57.133Z,5.00
2023-06-11T20:49:24.892Z,5.13
2023-06-11T20:51:51.996Z,4.85
2023-06-11T20:54:19.231Z,4.82
2023-06-11T20:56:46.358Z,4.85
2023-06-11T20:59:13.632Z,4.90
2023-06-11T21:01:41.000Z,5.35
2023-06-11T21:04:08.207Z,4.63
2023-06-11T21:06:40.564Z,5.10
2023-06-11T21:09:08.642Z,5.43
2023-06-11T21:11:36.131Z,5.13
2023-06-11T21:14:13.693Z,4.68
2023-06-11T21:16:42.561Z,4.70
2023-06-11T21:19:09.792Z,4.85
2023-06-11T21:21:37.811Z,5.05
2023-06-11T21:24:05.901Z,4.57
2023-06-11T21:26:33.337Z,4.95
2023-06-11T21:29:01.648Z,5.25
2023-06-11T21:31:28.809Z,5.20
2023-06-11T21:33:56.299Z,5.07
2023-06-11T21:36:23.412Z,4.80
2023-06-11T21:38:50.489Z,4.95
2023-06-11T21:41:17.588Z,5.10
2023-06-11T21:43:44.684Z,4.47
2023-06-11T21:46:11.828Z,5.50
2023-06-11T21:48:38.882Z,5.37
2023-06-11T21:51:06.029Z,5.38
2023-06-11T21:53:33.103Z,4.55
2023-06-11T21:56:00.479Z,5.40
2023-06-11T21:58:27.601Z,5.22
2023-06-11T22:00:54.714Z,5.23
2023-06-11T22:03:23.791Z,4.78
2023-06-11T22:05:54.722Z,5.03
2023-06-11T22:08:22.567Z,5.57
2023-06-11T22:10:50.196Z,4.85
2023-06-11T22:13:17.578Z,5.67
2023-06-11T22:15:44.969Z,4.93
2023-06-11T22:18:12.066Z,5.30
2023-06-11T22:20:39.661Z,5.03
2023-06-11T22:23:06.793Z,5.43
2023-06-11T22:25:33.936Z,5.47
2023-06-11T22:28:01.069Z,5.45
2023-06-11T22:30:28.249Z,5.28
2023-06-11T22:32:55.348Z,5.05
2023-06-11T22:35:22.672Z,4.97
2023-06-11T22:37:49.794Z,5.10
2023-06-11T22:40:16.901Z,5.93
2023-06-11T22:42:43.980Z,5.50
2023-06-11T22:45:11.427Z,5.57
2023-06-11T22:47:39.781Z,5.40
2023-06-11T22:50:08.120Z,5.50
2023-06-11T22:52:41.344Z,5.68
2023-06-11T22:55:10.127Z,5.05
2023-06-11T22:57:37.599Z,5.45
2023-06-11T23:00:06.177Z,5.65
2023-06-11T23:02:33.385Z,5.17
2023-06-11T23:05:00.730Z,6.05
2023-06-11T23:07:28.470Z,4.97
2023-06-11T23:09:55.697Z,5.50
2023-06-11T23:12:22.791Z,5.25
2023-06-11T23:14:49.964Z,5.40
2023-06-11T23:17:20.513Z,5.03
2023-06-11T23:19:47.881Z,5.32
2023-06-11T23:22:15.514Z,5.35
2023-06-11T23:24:45.968Z,6.00
2023-06-11T23:27:16.448Z,6.13
2023-06-11T23:29:44.730Z,5.78
2023-06-11T23:32:12.169Z,5.45
2023-06-11T23:34:39.658Z,5.75
2023-06-11T23:37:07.566Z,5.93
2023-06-11T23:39:35.190Z,5.67
2023-06-11T23:42:02.941Z,5.97
2023-06-11T23:44:30.065Z,5.82
2023-06-11T23:46:57.205Z,5.22
2023-06-11T23:49:24.277Z,5.80
2023-06-11T23:51:51.762Z,5.70
2023-06-11T23:54:18.859Z,5.15
2023-06-11T23:56:45.958Z,5.30
2023-06-11T23:59:13.201Z,5.55
